sensor_id;sensor_type;location;lat;lon;timestamp;pressure;altitude;pressure_sealevel;temperature;humidity
46241;BME280;31961;52.416;-0.732;2022-10-31T00:00:33;100680.32;;;11.26;63.66
46241;BME280;31961;52.416;-0.732;2022-10-31T00:03:01;100682.61;;;12.05;62.42
46241;BME280;31961;52.416;-0.732;2022-10-31T00:05:28;100684.88;;;11.88;62.29
46241;BME280;31961;52.416;-0.732;2022-10-31T00:07:55;100686.54;;;11.20;63.16
46241;BME280;31961;52.416;-0.732;2022-10-31T00:10:23;100685.00;;;10.97;64.41
46241;BME280;31961;52.416;-0.732;2022-10-31T00:12:51;100677.42;;;11.77;62.15
46241;BME280;31961;52.416;-0.732;2022-10-31T00:15:19;100678.65;;;12.03;62.19
46241;BME280;31961;52.416;-0.732;2022-10-31T00:17:46;100675.99;;;11.61;61.77
46241;BME280;31961;52.416;-0.732;2022-10-31T00:20:14;100675.87;;;11.61;61.13
46241;BME280;31961;52.416;-0.732;2022-10-31T00:22:41;100677.83;;;11.88;61.69
46241;BME280;31961;52.416;-0.732;2022-10-31T00:25:09;100677.43;;;11.84;61.07
46241;BME280;31961;52.416;-0.732;2022-10-31T00:27:36;100677.37;;;12.33;60.47
46241;BME280;31961;52.416;-0.732;2022-10-31T00:30:05;100677.37;;;12.19;60.39
46241;BME280;31961;52.416;-0.732;2022-10-31T00:32:32;100676.22;;;12.41;60.04
46241;BME280;31961;52.416;-0.732;2022-10-31T00:35:00;100678.12;;;12.39;60.39
46241;BME280;31961;52.416;-0.732;2022-10-31T00:37:27;100677.12;;;11.94;60.69
46241;BME280;31961;52.416;-0.732;2022-10-31T00:39:55;100677.87;;;12.08;60.50
46241;BME280;31961;52.416;-0.732;2022-10-31T00:42:22;100678.00;;;11.82;61.09
46241;BME280;31961;52.416;-0.732;2022-10-31T00:44:50;100680.73;;;11.20;62.72
46241;BME280;31961;52.416;-0.732;2022-10-31T00:47:17;100678.25;;;11.87;61.06
46241;BME280;31961;52.416;-0.732;2022-10-31T00:49:45;100679.49;;;12.29;60.72
46241;BME280;31961;52.416;-0.732;2022-10-31T00:52:12;100684.23;;;11.80;61.29
46241;BME280;31961;52.416;-0.732;2022-10-31T00:54:40;100678.39;;;11.87;61.37
46241;BME280;31961;52.416;-0.732;2022-10-31T00:57:07;100675.74;;;11.89;61.08
46241;BME280;31961;52.416;-0.732;2022-10-31T00:59:34;100675.38;;;12.04;60.70
46241;BME280;31961;52.416;-0.732;2022-10-31T01:02:02;100673.52;;;11.63;61.28
46241;BME280;31961;52.416;-0.732;2022-10-31T01:04:30;100672.70;;;11.71;62.38
46241;BME280;31961;52.416;-0.732;2022-10-31T01:06:57;100669.00;;;11.68;62.09
46241;BME280;31961;52.416;-0.732;2022-10-31T01:09:25;100667.15;;;10.65;63.45
46241;BME280;31961;52.416;-0.732;2022-10-31T01:11:53;100661.29;;;11.59;61.76
46241;BME280;31961;52.416;-0.732;2022-10-31T01:14:20;100662.63;;;11.66;61.77
46241;BME280;31961;52.416;-0.732;2022-10-31T01:16:48;100659.99;;;11.75;62.21
46241;BME280;31961;52.416;-0.732;2022-10-31T01:19:15;100666.64;;;10.92;64.51
46241;BME280;31961;52.416;-0.732;2022-10-31T01:21:43;100661.89;;;11.62;62.82
46241;BME280;31961;52.416;-0.732;2022-10-31T01:24:10;100663.65;;;11.73;62.11
46241;BME280;31961;52.416;-0.732;2022-10-31T01:26:38;100662.67;;;11.52;63.52
46241;BME280;31961;52.416;-0.732;2022-10-31T01:29:08;100651.36;;;11.66;62.54
46241;BME280;31961;52.416;-0.732;2022-10-31T01:31:37;100651.10;;;11.34;64.30
46241;BME280;31961;52.416;-0.732;2022-10-31T01:34:05;100655.23;;;10.73;66.02
46241;BME280;31961;52.416;-0.732;2022-10-31T01:36:34;100656.50;;;10.63;65.99
46241;BME280;31961;52.416;-0.732;2022-10-31T01:39:04;100660.40;;;11.49;64.40
46241;BME280;31961;52.416;-0.732;2022-10-31T01:41:33;100663.44;;;10.34;67.42
46241;BME280;31961;52.416;-0.732;2022-10-31T01:44:43;100670.07;;;10.51;66.62
46241;BME280;31961;52.416;-0.732;2022-10-31T01:47:16;100673.76;;;11.00;66.18
46241;BME280;31961;52.416;-0.732;2022-10-31T01:49:47;100672.15;;;11.12;64.90
46241;BME280;31961;52.416;-0.732;2022-10-31T01:52:19;100674.82;;;10.13;69.04
46241;BME280;31961;52.416;-0.732;2022-10-31T01:54:53;100676.36;;;11.00;66.44
46241;BME280;31961;52.416;-0.732;2022-10-31T01:57:25;100675.55;;;11.57;65.32
46241;BME280;31961;52.416;-0.732;2022-10-31T01:59:56;100666.30;;;10.64;65.86
46241;BME280;31961;52.416;-0.732;2022-10-31T02:02:25;100665.91;;;11.06;65.79
46241;BME280;31961;52.416;-0.732;2022-10-31T02:04:54;100667.84;;;11.74;64.68
46241;BME280;31961;52.416;-0.732;2022-10-31T02:07:26;100662.37;;;11.69;63.81
46241;BME280;31961;52.416;-0.732;2022-10-31T02:09:55;100666.30;;;11.32;64.59
46241;BME280;31961;52.416;-0.732;2022-10-31T02:12:50;100648.98;;;12.18;62.74
